Aeroporto :
LOGIN :

Iscrizione | Disclaimer

   EN    FR    IT 

 










Sommario :    VFR   VFR Marginale   IFR   IFR Intensivo   IFR Molto Intensivo
Visibilità : 
Base nubi : 
>= 8 km
>= 3000ft
5 / 8 km
1000 / 3000 ft
1500m / 5 km
500 / 1000 ft
800 / 1500m
200 / 500 ft
< 800m
< 200 ft
Simboli :   Temporali  Nebbia  Neve Forte  Precipitazioni Forti  Vento > 20 kt
SIGMETs :   Varie  Temporali  Ghiacco  Turbolenza  Onda orograficha  Ceneri Vulcaniche






- Altitudine del aeroporto : 495 ft
- Codice IATA : BUD


LHBP - Budapest Ferihegy

ULTIMO METAR :
  • 221330Z 28009KT 7000 OVC010 M00/M02 Q1028 BECMG BKN015

METARs OBSOLETI :
  • 221300Z 25007KT 3500 BR OVC005 M01/M02 Q1029 BECMG 5000 BR BKN010
  • 221230Z 25008KT 3000 BR OVC005 M01/M02 Q1029 BECMG 5000 BR BKN010
  • 221200Z 23007KT 2200 BR OVC004 M01/M02 Q1030 BECMG 3000 BR BKN005
  • 221130Z 26006KT 1800 BR OVC002 M02/M02 Q1030 BECMG 3000 BR BKN005
  • 221100Z 21006KT 180V250 1300 R31L/1700N R31R/1900D BR OVC002 M02/M02 Q1030 BECMG 1700 BR

TAF TAF LHBP
Valido dal 22 a 12 ore il 23 a 12 ore UTC


221115Z 2212/2312 22005KT 3000 BR BKN017
TEMPO 2212/2214 1100 FZBCFG OVC002
BECMG 2214/2216 27008KT 8000 NSW SCT020
BECMG 2216/2219 32014KT CAVOK
BECMG 2222/2301 VRB03KT
TEMPO 2304/2308 FZMIFG



MetMap, La meteo Aeronautica in un colpo d'occhio ! - Copyright ORBIFLY Dicembre 2007 - Disclaimer

ORBIFLY MET'MAP TEAM :

Programmazione e sviluppo : Alexandra Zaïnal
Concezione : Baudouin d'Aumeries
Aiuto per la programmazione : Marc-Olivier Méhu
Supporto tecnico e logistico : Manuel Goepfert
Aiuto per la traduzione : Arnaldo La Scala

Contatto : metmap@orbifly.com




FONTI E CREDITI :

   NOAA